createdAt,value
2022-12-11T00:02:02.256Z,22.92
2022-12-11T00:04:28.972Z,26.02
2022-12-11T00:06:55.535Z,28.80
2022-12-11T00:09:22.643Z,31.60
2022-12-11T00:11:49.344Z,31.83
2022-12-11T00:14:16.068Z,32.55
2022-12-11T00:16:42.717Z,29.52
2022-12-11T00:19:09.428Z,30.38
2022-12-11T00:21:36.110Z,28.23
2022-12-11T00:24:02.794Z,32.15
2022-12-11T00:26:29.573Z,29.42
2022-12-11T00:28:57.080Z,27.83
2022-12-11T00:31:24.148Z,28.67
2022-12-11T00:33:51.447Z,25.95
2022-12-11T00:36:21.264Z,25.75
2022-12-11T00:38:48.863Z,27.25
2022-12-11T00:41:16.526Z,22.65
2022-12-11T00:43:43.276Z,27.27
2022-12-11T00:46:11.137Z,25.63
2022-12-11T00:48:38.426Z,24.92
2022-12-11T00:51:05.767Z,28.80
2022-12-11T00:53:32.448Z,29.00
2022-12-11T00:55:59.059Z,27.05
2022-12-11T00:58:25.640Z,29.08
2022-12-11T01:00:53.253Z,29.30
2022-12-11T01:03:20.027Z,31.33
2022-12-11T01:05:54.324Z,32.03
2022-12-11T01:08:21.418Z,38.50
2022-12-11T01:10:48.145Z,35.40
2022-12-11T01:13:15.735Z,31.85
2022-12-11T01:15:44.808Z,34.30
2022-12-11T01:18:13.516Z,30.42
2022-12-11T01:20:43.224Z,36.30
2022-12-11T01:23:13.908Z,33.92
2022-12-11T01:25:41.256Z,28.55
2022-12-11T01:28:09.068Z,39.85
2022-12-11T01:30:36.688Z,35.50
2022-12-11T01:33:03.658Z,37.90
2022-12-11T01:35:30.320Z,43.05
2022-12-11T01:37:56.999Z,40.00
2022-12-11T01:40:23.623Z,39.55
2022-12-11T01:42:50.233Z,42.38
2022-12-11T01:45:33.317Z,42.33
2022-12-11T01:48:05.423Z,45.13
2022-12-11T01:50:36.179Z,40.22
2022-12-11T01:53:06.487Z,43.03
2022-12-11T01:55:34.242Z,39.78
2022-12-11T01:58:02.320Z,47.90
2022-12-11T02:00:28.905Z,44.33
2022-12-11T02:02:55.556Z,44.53
2022-12-11T02:05:22.212Z,49.63
2022-12-11T02:07:54.212Z,41.92
2022-12-11T02:10:24.521Z,41.05
2022-12-11T02:13:04.783Z,49.33
2022-12-11T02:15:39.700Z,49.83
2022-12-11T02:18:25.486Z,50.58
2022-12-11T02:21:13.433Z,44.25
2022-12-11T02:24:12.173Z,42.03
2022-12-11T02:27:20.070Z,45.85
2022-12-11T02:30:03.158Z,40.33
2022-12-11T02:32:51.800Z,49.33
2022-12-11T02:35:24.628Z,52.35
2022-12-11T02:37:57.765Z,47.60
2022-12-11T02:40:28.468Z,47.30
2022-12-11T02:42:58.041Z,46.80
2022-12-11T02:45:26.321Z,45.55
2022-12-11T02:47:53.042Z,52.10
2022-12-11T02:50:23.513Z,51.50
2022-12-11T02:52:54.093Z,48.13
2022-12-11T02:55:20.848Z,50.45
2022-12-11T02:58:03.270Z,46.22
2022-12-11T03:00:30.959Z,52.78
2022-12-11T03:02:58.050Z,46.72
2022-12-11T03:05:24.774Z,52.22
2022-12-11T03:07:51.438Z,46.50
2022-12-11T03:10:19.872Z,55.15
2022-12-11T03:12:53.379Z,49.15
2022-12-11T03:15:24.061Z,44.22
2022-12-11T03:18:09.822Z,45.25
2022-12-11T03:20:45.608Z,40.65
2022-12-11T03:23:39.472Z,41.35
2022-12-11T03:26:10.632Z,40.65
2022-12-11T03:28:47.160Z,36.72
2022-12-11T03:31:23.199Z,43.08
2022-12-11T03:33:54.395Z,54.03
2022-12-11T03:36:27.426Z,51.03
2022-12-11T03:39:02.017Z,53.28
2022-12-11T03:41:32.761Z,54.50
2022-12-11T03:43:59.419Z,52.42
2022-12-11T03:46:33.286Z,49.65
2022-12-11T03:49:07.465Z,55.40
2022-12-11T03:51:35.578Z,59.70
2022-12-11T03:54:02.726Z,55.72
2022-12-11T03:56:32.499Z,56.33
2022-12-11T03:58:59.094Z,58.42
2022-12-11T04:01:25.743Z,58.63
2022-12-11T04:03:52.395Z,64.60
2022-12-11T04:06:19.193Z,58.53
2022-12-11T04:08:45.793Z,60.08
2022-12-11T04:11:31.175Z,59.42
2022-12-11T04:14:16.228Z,58.95
2022-12-11T04:16:42.829Z,58.97
2022-12-11T04:19:30.380Z,60.97
2022-12-11T04:22:15.667Z,64.57
2022-12-11T04:24:42.286Z,62.35
2022-12-11T04:27:09.029Z,59.78
2022-12-11T04:29:35.676Z,61.35
2022-12-11T04:32:02.283Z,65.97
2022-12-11T04:34:29.086Z,62.50
2022-12-11T04:36:55.712Z,61.90
2022-12-11T04:39:22.318Z,59.30
2022-12-11T04:41:48.889Z,67.03
2022-12-11T04:44:15.484Z,54.05
2022-12-11T04:46:42.140Z,63.08
2022-12-11T04:49:10.039Z,58.13
2022-12-11T04:51:36.724Z,62.67
2022-12-11T04:54:03.365Z,57.22
2022-12-11T04:56:29.928Z,58.30
2022-12-11T04:58:56.526Z,63.13
2022-12-11T05:01:23.411Z,63.17
2022-12-11T05:03:50.397Z,57.45
2022-12-11T05:06:17.224Z,48.92
2022-12-11T05:08:45.126Z,46.80
2022-12-11T05:11:14.831Z,55.75
2022-12-11T05:13:42.200Z,56.30
2022-12-11T05:16:10.591Z,57.85
2022-12-11T05:18:37.461Z,60.15
2022-12-11T05:21:07.485Z,52.15
2022-12-11T05:23:34.730Z,50.72
2022-12-11T05:26:07.161Z,48.35
2022-12-11T05:31:22.730Z,43.00
2022-12-11T05:33:50.387Z,46.47
2022-12-11T05:36:23.239Z,42.55
2022-12-11T05:38:50.125Z,45.42
2022-12-11T05:41:19.612Z,38.17
2022-12-11T05:43:46.296Z,46.58
2022-12-11T05:46:15.971Z,42.97
2022-12-11T05:48:43.908Z,41.80
2022-12-11T05:51:11.188Z,44.70
2022-12-11T05:53:39.243Z,43.92
2022-12-11T05:56:14.644Z,39.08
2022-12-11T05:58:41.914Z,41.83
2022-12-11T06:01:14.589Z,47.33
2022-12-11T06:03:41.565Z,46.22
2022-12-11T06:06:08.655Z,47.60
2022-12-11T06:08:35.590Z,45.78
2022-12-11T06:11:03.301Z,49.72
2022-12-11T06:13:30.223Z,50.13
2022-12-11T06:16:04.274Z,49.92
2022-12-11T06:18:31.728Z,46.47
2022-12-11T06:20:58.451Z,42.90
2022-12-11T06:23:25.081Z,50.50
2022-12-11T06:25:51.706Z,47.75
2022-12-11T06:28:18.301Z,55.55
2022-12-11T06:30:45.119Z,40.42
2022-12-11T06:33:11.726Z,46.83
2022-12-11T06:35:42.071Z,44.42
2022-12-11T06:38:10.747Z,41.63
2022-12-11T06:40:37.757Z,45.40
2022-12-11T06:43:04.339Z,39.83
2022-12-11T06:45:31.042Z,37.67
2022-12-11T06:47:58.710Z,45.15
2022-12-11T06:50:25.325Z,41.42
2022-12-11T06:52:52.123Z,40.05
2022-12-11T06:55:18.705Z,42.25
2022-12-11T06:57:45.301Z,36.88
2022-12-11T07:00:12.789Z,40.85
2022-12-11T07:02:39.417Z,43.45
2022-12-11T07:05:06.859Z,40.80
2022-12-11T07:07:34.457Z,42.20
2022-12-11T07:10:07.676Z,40.70
2022-12-11T07:12:35.194Z,35.67
2022-12-11T07:15:01.801Z,39.53
2022-12-11T07:17:29.515Z,38.42
2022-12-11T07:19:56.258Z,35.03
2022-12-11T07:22:22.865Z,38.40
2022-12-11T07:24:49.564Z,31.98
2022-12-11T07:27:16.258Z,41.38
2022-12-11T07:29:42.901Z,49.90
2022-12-11T07:32:09.780Z,37.58
2022-12-11T07:34:36.711Z,59.45
2022-12-11T07:37:03.779Z,105.20
2022-12-11T07:39:30.365Z,179.95
2022-12-11T07:41:56.993Z,244.07
2022-12-11T07:44:23.767Z,124.85
2022-12-11T07:46:50.428Z,152.65
2022-12-11T07:49:16.997Z,126.43
2022-12-11T07:51:43.659Z,56.75
2022-12-11T07:54:16.764Z,69.30
2022-12-11T07:56:46.492Z,47.15
2022-12-11T07:59:16.829Z,36.00
2022-12-11T08:01:43.676Z,49.25
2022-12-11T08:04:11.865Z,53.72
2022-12-11T08:06:40.162Z,58.83
2022-12-11T08:09:10.515Z,40.78
2022-12-11T08:11:38.471Z,36.75
2022-12-11T08:14:06.767Z,43.75
2022-12-11T08:16:33.608Z,33.58
2022-12-11T08:19:00.476Z,29.30
2022-12-11T08:21:28.510Z,65.88
2022-12-11T08:23:56.090Z,33.78
2022-12-11T08:26:26.137Z,30.67
2022-12-11T08:28:52.896Z,33.90
2022-12-11T08:31:21.294Z,31.02
2022-12-11T08:33:48.598Z,32.40
2022-12-11T08:36:18.357Z,30.33
2022-12-11T08:38:44.966Z,30.38
2022-12-11T08:41:16.953Z,33.70
2022-12-11T08:43:44.019Z,31.45
2022-12-11T08:46:11.744Z,25.90
2022-12-11T08:48:40.239Z,29.70
2022-12-11T08:51:11.228Z,31.10
2022-12-11T08:53:38.934Z,31.25
2022-12-11T08:56:08.600Z,28.73
2022-12-11T08:58:35.921Z,33.70
2022-12-11T09:01:10.982Z,35.22
2022-12-11T09:03:38.398Z,31.10
2022-12-11T09:06:07.420Z,33.17
2022-12-11T09:08:34.339Z,29.70
2022-12-11T09:11:10.173Z,32.28
2022-12-11T09:13:38.814Z,32.65
2022-12-11T09:16:08.016Z,30.30
2022-12-11T09:18:34.804Z,30.60
2022-12-11T09:21:10.785Z,37.78
2022-12-11T09:23:37.719Z,35.42
2022-12-11T09:26:06.149Z,30.02
2022-12-11T09:28:33.233Z,33.03
2022-12-11T09:30:59.944Z,32.90
2022-12-11T09:33:26.462Z,28.38
2022-12-11T09:35:59.826Z,26.25
2022-12-11T09:38:26.515Z,33.85
2022-12-11T09:40:54.039Z,29.48
2022-12-11T09:43:46.334Z,26.75
2022-12-11T09:46:15.461Z,33.72
2022-12-11T09:48:45.923Z,30.38
2022-12-11T09:51:28.122Z,31.42
2022-12-11T09:53:56.896Z,27.05
2022-12-11T09:56:36.638Z,29.50
2022-12-11T09:59:38.661Z,27.45
2022-12-11T10:02:43.672Z,33.13
2022-12-11T10:05:34.923Z,27.75
2022-12-11T10:08:30.988Z,30.25
2022-12-11T10:11:18.270Z,31.85
2022-12-11T10:13:57.310Z,32.47
2022-12-11T10:16:52.232Z,29.00
2022-12-11T10:19:24.522Z,30.77
2022-12-11T10:21:52.655Z,29.52
2022-12-11T10:27:31.309Z,28.25
2022-12-11T10:30:31.614Z,26.15
2022-12-11T10:33:22.831Z,32.50
2022-12-11T10:35:54.835Z,26.98
2022-12-11T10:38:30.176Z,32.00
2022-12-11T10:40:58.972Z,29.38
2022-12-11T10:43:37.601Z,27.85
2022-12-11T10:46:05.541Z,39.65
2022-12-11T10:48:32.154Z,31.05
2022-12-11T10:51:07.244Z,28.15
2022-12-11T10:53:34.878Z,29.88
2022-12-11T10:56:02.619Z,27.35
2022-12-11T10:58:33.991Z,27.38
2022-12-11T11:01:03.840Z,28.00
2022-12-11T11:03:30.672Z,24.60
2022-12-11T11:06:17.312Z,26.95
2022-12-11T11:08:52.730Z,29.20
2022-12-11T11:11:24.905Z,26.52
2022-12-11T11:13:52.024Z,25.48
2022-12-11T11:16:22.055Z,26.40
2022-12-11T11:18:55.073Z,26.17
2022-12-11T11:21:25.709Z,28.77
2022-12-11T11:23:54.044Z,29.58
2022-12-11T11:26:22.981Z,28.15
2022-12-11T11:28:52.408Z,26.10
2022-12-11T11:31:20.989Z,27.48
2022-12-11T11:34:08.565Z,29.50
2022-12-11T11:36:36.979Z,29.45
2022-12-11T11:39:23.243Z,30.13
2022-12-11T11:42:00.491Z,34.55
2022-12-11T11:44:36.907Z,34.17
2022-12-11T11:47:42.585Z,26.40
2022-12-11T11:50:18.344Z,29.77
2022-12-11T11:53:11.057Z,29.65
2022-12-11T11:55:51.871Z,34.15
2022-12-11T11:58:56.243Z,31.75
2022-12-11T12:01:23.639Z,36.83
2022-12-11T12:03:51.920Z,30.65
2022-12-11T12:06:48.964Z,29.00
2022-12-11T12:09:45.988Z,25.83
2022-12-11T12:12:39.463Z,31.92
2022-12-11T12:15:21.917Z,25.20
2022-12-11T12:18:37.986Z,26.25
2022-12-11T12:21:26.885Z,27.90
2022-12-11T12:24:22.476Z,24.50
2022-12-11T12:26:57.463Z,27.52
2022-12-11T12:29:56.805Z,23.55
2022-12-11T12:33:04.691Z,22.63
2022-12-11T12:35:40.150Z,24.48
2022-12-11T12:38:14.543Z,23.35
2022-12-11T12:44:21.039Z,22.50
2022-12-11T12:46:57.385Z,25.45
2022-12-11T12:49:42.868Z,29.67
2022-12-11T12:52:20.845Z,21.02
2022-12-11T12:55:11.376Z,17.27
2022-12-11T12:57:40.107Z,22.90
2022-12-11T13:00:13.065Z,21.35
2022-12-11T13:02:51.102Z,22.52
2022-12-11T13:05:33.343Z,23.55
2022-12-11T13:08:04.547Z,22.80
2022-12-11T13:10:34.932Z,25.33
2022-12-11T13:13:03.789Z,26.77
2022-12-11T13:15:48.569Z,23.33
2022-12-11T13:18:36.555Z,29.33
2022-12-11T13:21:29.787Z,26.33
2022-12-11T13:24:14.033Z,23.73
2022-12-11T13:26:41.195Z,27.00
2022-12-11T13:29:53.703Z,21.95
2022-12-11T13:32:24.324Z,22.65
2022-12-11T13:34:55.456Z,25.52
2022-12-11T13:37:34.812Z,33.67
2022-12-11T13:40:06.004Z,27.20
2022-12-11T13:42:36.040Z,25.25
2022-12-11T13:45:04.275Z,22.90
2022-12-11T13:47:32.235Z,29.45
2022-12-11T13:50:20.809Z,26.20
2022-12-11T13:52:58.760Z,24.75
2022-12-11T13:55:34.060Z,23.63
2022-12-11T13:58:01.076Z,24.27
2022-12-11T14:00:30.415Z,22.95
2022-12-11T14:03:01.152Z,24.50
2022-12-11T14:05:28.503Z,26.00
2022-12-11T14:08:02.918Z,30.92
2022-12-11T14:10:32.897Z,22.80
2022-12-11T14:13:06.043Z,30.85
2022-12-11T14:15:35.558Z,25.70
2022-12-11T14:18:04.183Z,26.00
2022-12-11T14:20:33.897Z,28.40
2022-12-11T14:23:18.055Z,21.70
2022-12-11T14:25:58.753Z,26.13
2022-12-11T14:28:27.855Z,26.67
2022-12-11T14:30:59.683Z,23.45
2022-12-11T14:33:32.087Z,23.77
2022-12-11T14:35:59.849Z,27.40
2022-12-11T14:38:43.371Z,23.00
2022-12-11T14:41:27.360Z,27.35
2022-12-11T14:43:59.168Z,23.48
2022-12-11T14:46:43.866Z,28.65
2022-12-11T14:49:34.420Z,25.92
2022-12-11T14:52:01.780Z,24.40
2022-12-11T14:54:36.536Z,24.23
2022-12-11T14:57:06.627Z,27.85
2022-12-11T14:59:40.542Z,27.42
2022-12-11T15:02:33.482Z,27.88
2022-12-11T15:05:12.404Z,24.02
2022-12-11T15:07:41.131Z,26.35
2022-12-11T15:10:20.889Z,26.67
2022-12-11T15:12:47.569Z,30.75
2022-12-11T15:15:15.686Z,24.05
2022-12-11T15:17:42.742Z,29.98
2022-12-11T15:20:20.008Z,27.48
2022-12-11T15:22:46.659Z,29.52
2022-12-11T15:25:25.078Z,32.92
2022-12-11T15:27:55.516Z,27.80
2022-12-11T15:30:32.907Z,30.08
2022-12-11T15:33:11.444Z,32.50
2022-12-11T15:35:40.328Z,28.90
2022-12-11T15:38:24.901Z,31.42
2022-12-11T15:40:51.457Z,34.10
2022-12-11T15:43:18.000Z,28.85
2022-12-11T15:45:44.704Z,29.60
2022-12-11T15:48:11.423Z,32.13
2022-12-11T15:50:37.994Z,27.20
2022-12-11T15:53:04.732Z,31.88
2022-12-11T15:55:34.914Z,32.58
2022-12-11T15:58:05.895Z,27.77
2022-12-11T16:00:32.507Z,28.42
2022-12-11T16:02:59.232Z,33.85
2022-12-11T16:05:26.815Z,27.38
2022-12-11T16:07:59.506Z,29.23
2022-12-11T16:10:27.178Z,36.08
2022-12-11T16:12:56.645Z,32.03
2022-12-11T16:15:24.338Z,29.52
2022-12-11T16:18:05.976Z,31.88
2022-12-11T16:20:33.642Z,31.10
2022-12-11T16:23:00.474Z,33.72
2022-12-11T16:25:28.050Z,32.03
2022-12-11T16:27:59.861Z,33.08
2022-12-11T16:30:27.925Z,32.75
2022-12-11T16:32:54.864Z,46.47
2022-12-11T16:35:22.557Z,32.53
2022-12-11T16:37:50.919Z,33.22
2022-12-11T16:40:18.101Z,30.77
2022-12-11T16:42:44.791Z,34.85
2022-12-11T16:45:14.850Z,33.58
2022-12-11T16:47:41.666Z,35.38
2022-12-11T16:50:09.025Z,31.77
2022-12-11T16:52:35.768Z,34.22
2022-12-11T16:55:02.371Z,33.67
2022-12-11T16:57:28.903Z,36.13
2022-12-11T16:59:55.438Z,36.42
2022-12-11T17:02:22.367Z,35.10
2022-12-11T17:04:53.638Z,35.28
2022-12-11T17:07:20.720Z,32.20
2022-12-11T17:09:47.464Z,35.63
2022-12-11T17:12:13.998Z,39.50
2022-12-11T17:14:40.717Z,32.22
2022-12-11T17:17:07.390Z,37.45
2022-12-11T17:19:33.988Z,37.00
2022-12-11T17:22:00.660Z,36.30
2022-12-11T17:24:27.399Z,39.53
2022-12-11T17:26:55.460Z,37.80
2022-12-11T17:29:22.180Z,31.95
2022-12-11T17:31:48.748Z,35.55
2022-12-11T17:34:15.954Z,34.45
2022-12-11T17:36:42.729Z,34.28
2022-12-11T17:39:09.304Z,35.00
2022-12-11T17:41:35.859Z,32.03
2022-12-11T17:44:02.574Z,34.90
2022-12-11T17:46:29.288Z,36.38
2022-12-11T17:48:56.714Z,35.83
2022-12-11T17:51:24.582Z,34.80
2022-12-11T17:53:52.695Z,30.77
2022-12-11T17:56:19.652Z,29.88
2022-12-11T17:58:46.384Z,24.80
2022-12-11T18:01:13.402Z,27.85
2022-12-11T18:03:40.846Z,26.10
2022-12-11T18:06:10.847Z,32.70
2022-12-11T18:08:38.143Z,25.90
2022-12-11T18:11:13.951Z,22.00
2022-12-11T18:13:41.198Z,26.75
2022-12-11T18:16:17.874Z,25.33
2022-12-11T18:18:46.180Z,25.50
2022-12-11T18:21:15.235Z,27.23
2022-12-11T18:23:41.980Z,24.55
2022-12-11T18:26:08.676Z,29.42
2022-12-11T18:28:35.260Z,25.52
2022-12-11T18:31:03.491Z,28.15
2022-12-11T18:33:32.163Z,110.35
2022-12-11T18:35:58.762Z,45.30
2022-12-11T18:38:25.479Z,45.63
2022-12-11T18:40:52.123Z,34.28
2022-12-11T18:43:18.714Z,33.72
2022-12-11T18:45:45.647Z,59.58
2022-12-11T18:48:13.411Z,54.92
2022-12-11T18:50:48.403Z,38.92
2022-12-11T18:53:15.419Z,37.70
2022-12-11T18:55:45.027Z,32.47
2022-12-11T18:58:12.884Z,46.22
2022-12-11T19:00:40.750Z,32.95
2022-12-11T19:03:08.580Z,46.38
2022-12-11T19:05:36.232Z,49.20
2022-12-11T19:08:03.781Z,53.38
2022-12-11T19:10:30.394Z,87.38
2022-12-11T19:12:57.056Z,168.52
2022-12-11T19:15:24.336Z,219.00
2022-12-11T19:17:51.327Z,77.25
2022-12-11T19:20:47.399Z,37.30
2022-12-11T19:23:04.963Z,30.02
2022-12-11T19:25:32.062Z,32.15
2022-12-11T19:27:58.649Z,29.67
2022-12-11T19:30:25.219Z,37.20
2022-12-11T19:32:51.836Z,27.98
2022-12-11T19:35:18.387Z,24.90
2022-12-11T19:37:45.041Z,35.08
2022-12-11T19:40:11.784Z,36.35
2022-12-11T19:42:38.308Z,28.60
2022-12-11T19:45:05.434Z,30.35
2022-12-11T19:47:32.023Z,28.48
2022-12-11T19:49:58.615Z,26.67
2022-12-11T19:52:25.177Z,31.40
2022-12-11T19:54:51.775Z,29.88
2022-12-11T19:57:18.313Z,29.00
2022-12-11T19:59:44.970Z,30.77
2022-12-11T20:02:12.209Z,30.45
2022-12-11T20:04:38.803Z,28.80
2022-12-11T20:07:05.436Z,29.08
2022-12-11T20:09:33.646Z,27.20
2022-12-11T20:12:00.259Z,24.45
2022-12-11T20:14:26.926Z,25.73
2022-12-11T20:17:11.353Z,30.60
2022-12-11T20:19:40.040Z,25.13
2022-12-11T20:22:06.834Z,24.40
2022-12-11T20:24:33.561Z,21.33
2022-12-11T20:27:00.264Z,29.00
2022-12-11T20:29:26.958Z,23.10
2022-12-11T20:31:53.701Z,24.52
2022-12-11T20:34:20.404Z,22.65
2022-12-11T20:36:48.347Z,24.13
2022-12-11T20:39:15.648Z,23.10
2022-12-11T20:41:42.389Z,24.67
2022-12-11T20:44:08.965Z,22.90
2022-12-11T20:46:35.549Z,30.38
2022-12-11T20:49:02.110Z,23.95
2022-12-11T20:51:29.166Z,25.30
2022-12-11T20:53:59.677Z,21.20
2022-12-11T20:56:28.622Z,25.42
2022-12-11T20:58:55.721Z,26.88
2022-12-11T21:01:25.344Z,24.80
2022-12-11T21:03:53.526Z,23.35
2022-12-11T21:06:31.526Z,26.23
2022-12-11T21:09:05.475Z,20.50
2022-12-11T21:11:32.044Z,27.00
2022-12-11T21:13:58.636Z,23.23
2022-12-11T21:16:25.485Z,23.70
2022-12-11T21:18:52.147Z,26.65
2022-12-11T21:21:18.812Z,25.30
2022-12-11T21:23:45.365Z,22.30
2022-12-11T21:26:12.699Z,25.30
2022-12-11T21:28:39.330Z,20.42
2022-12-11T21:31:11.399Z,17.55
2022-12-11T21:33:38.010Z,22.40
2022-12-11T21:36:06.230Z,29.90
2022-12-11T21:38:33.399Z,21.15
2022-12-11T21:41:10.224Z,18.88
2022-12-11T21:43:43.385Z,24.00
2022-12-11T21:46:26.134Z,16.00
2022-12-11T21:48:52.881Z,16.50
2022-12-11T21:51:29.673Z,17.98
2022-12-11T21:53:59.210Z,22.48
2022-12-11T21:56:28.339Z,16.58
2022-12-11T21:58:55.419Z,20.95
2022-12-11T22:01:29.227Z,18.42
2022-12-11T22:03:56.104Z,13.60
2022-12-11T22:06:22.915Z,17.13
2022-12-11T22:08:50.427Z,16.98
2022-12-11T22:11:21.686Z,16.88
2022-12-11T22:13:49.341Z,21.67
2022-12-11T22:16:16.054Z,27.65
2022-12-11T22:18:42.630Z,20.30
2022-12-11T22:21:09.341Z,22.05
2022-12-11T22:23:38.346Z,22.58
2022-12-11T22:26:09.665Z,20.20
2022-12-11T22:28:36.214Z,18.45
2022-12-11T22:31:02.830Z,19.17
2022-12-11T22:33:29.593Z,17.55
2022-12-11T22:35:58.300Z,14.68
2022-12-11T22:38:26.119Z,20.23
2022-12-11T22:40:53.893Z,24.35
2022-12-11T22:43:20.805Z,18.27
2022-12-11T22:45:47.643Z,17.42
2022-12-11T22:48:14.328Z,16.50
2022-12-11T22:50:41.617Z,17.40
2022-12-11T22:53:08.509Z,16.58
2022-12-11T22:55:38.764Z,15.45
2022-12-11T22:58:05.455Z,17.20
2022-12-11T23:00:32.034Z,18.95
2022-12-11T23:02:58.843Z,15.77
2022-12-11T23:05:25.503Z,16.60
2022-12-11T23:07:52.274Z,20.15
2022-12-11T23:10:19.447Z,18.65
2022-12-11T23:12:46.069Z,16.23
2022-12-11T23:15:13.208Z,18.23
2022-12-11T23:17:40.025Z,19.52
2022-12-11T23:20:07.388Z,19.42
2022-12-11T23:22:34.134Z,17.35
2022-12-11T23:25:00.995Z,20.08
2022-12-11T23:27:28.055Z,18.35
2022-12-11T23:29:55.256Z,18.27
2022-12-11T23:32:22.502Z,21.50
2022-12-11T23:34:49.057Z,17.58
2022-12-11T23:37:15.676Z,19.90
2022-12-11T23:39:42.453Z,14.95
2022-12-11T23:42:09.434Z,16.70
2022-12-11T23:44:36.265Z,14.98
2022-12-11T23:47:02.868Z,15.57
2022-12-11T23:49:30.094Z,16.50
2022-12-11T23:51:56.759Z,17.63
2022-12-11T23:54:23.264Z,18.88
2022-12-11T23:56:50.096Z,18.70
2022-12-11T23:59:16.933Z,16.20
